sensor_id;sensor_type;location;lat;lon;timestamp;P1;durP1;ratioP1;P2;durP2;ratioP2
15966;SDS011;15175;48.154;11.534;2023-11-21T00:05:27;7.07;;;1.20;;
15966;SDS011;15175;48.154;11.534;2023-11-21T00:11:29;3.45;;;0.90;;
15966;SDS011;15175;48.154;11.534;2023-11-21T00:17:31;6.63;;;0.75;;
15966;SDS011;15175;48.154;11.534;2023-11-21T00:23:34;5.93;;;0.80;;
15966;SDS011;15175;48.154;11.534;2023-11-21T00:35:39;5.18;;;0.88;;
15966;SDS011;15175;48.154;11.534;2023-11-21T00:41:43;2.80;;;0.40;;
15966;SDS011;15175;48.154;11.534;2023-11-21T00:47:45;2.58;;;0.63;;
15966;SDS011;15175;48.154;11.534;2023-11-21T00:53:47;3.78;;;0.50;;
15966;SDS011;15175;48.154;11.534;2023-11-21T00:59:51;2.78;;;0.70;;
15966;SDS011;15175;48.154;11.534;2023-11-21T01:05:53;3.35;;;0.60;;
15966;SDS011;15175;48.154;11.534;2023-11-21T01:11:55;6.32;;;0.98;;
15966;SDS011;15175;48.154;11.534;2023-11-21T01:18:00;8.45;;;0.98;;
15966;SDS011;15175;48.154;11.534;2023-11-21T01:24:02;5.32;;;0.88;;
15966;SDS011;15175;48.154;11.534;2023-11-21T01:30:07;2.85;;;0.80;;
15966;SDS011;15175;48.154;11.534;2023-11-21T01:42:14;7.78;;;1.02;;
15966;SDS011;15175;48.154;11.534;2023-11-21T01:48:16;3.92;;;0.82;;
15966;SDS011;15175;48.154;11.534;2023-11-21T01:54:19;7.13;;;1.60;;
15966;SDS011;15175;48.154;11.534;2023-11-21T02:00:22;3.17;;;0.90;;
15966;SDS011;15175;48.154;11.534;2023-11-21T02:06:25;7.38;;;1.45;;
15966;SDS011;15175;48.154;11.534;2023-11-21T02:12:32;3.55;;;1.10;;
15966;SDS011;15175;48.154;11.534;2023-11-21T02:18:35;6.03;;;1.10;;
15966;SDS011;15175;48.154;11.534;2023-11-21T02:24:40;6.00;;;1.30;;
15966;SDS011;15175;48.154;11.534;2023-11-21T02:30:43;3.03;;;0.88;;
15966;SDS011;15175;48.154;11.534;2023-11-21T02:36:47;5.18;;;0.80;;
15966;SDS011;15175;48.154;11.534;2023-11-21T02:42:51;4.32;;;0.80;;
15966;SDS011;15175;48.154;11.534;2023-11-21T02:48:53;3.05;;;0.95;;
15966;SDS011;15175;48.154;11.534;2023-11-21T02:54:55;3.35;;;0.35;;
15966;SDS011;15175;48.154;11.534;2023-11-21T03:00:59;3.70;;;0.70;;
15966;SDS011;15175;48.154;11.534;2023-11-21T03:07:01;2.63;;;0.80;;
15966;SDS011;15175;48.154;11.534;2023-11-21T03:13:05;7.18;;;0.80;;
15966;SDS011;15175;48.154;11.534;2023-11-21T03:19:09;3.30;;;0.88;;
15966;SDS011;15175;48.154;11.534;2023-11-21T03:25:12;3.50;;;0.52;;
15966;SDS011;15175;48.154;11.534;2023-11-21T03:31:15;4.75;;;0.50;;
15966;SDS011;15175;48.154;11.534;2023-11-21T03:37:20;7.72;;;1.65;;
15966;SDS011;15175;48.154;11.534;2023-11-21T03:43:22;5.38;;;1.00;;
15966;SDS011;15175;48.154;11.534;2023-11-21T03:49:24;2.70;;;0.40;;
15966;SDS011;15175;48.154;11.534;2023-11-21T03:55:28;3.65;;;0.90;;
15966;SDS011;15175;48.154;11.534;2023-11-21T04:01:31;2.33;;;0.40;;
15966;SDS011;15175;48.154;11.534;2023-11-21T04:07:33;2.97;;;0.57;;
15966;SDS011;15175;48.154;11.534;2023-11-21T04:13:37;1.92;;;0.50;;
15966;SDS011;15175;48.154;11.534;2023-11-21T04:19:39;4.63;;;0.70;;
15966;SDS011;15175;48.154;11.534;2023-11-21T04:25:41;2.35;;;0.65;;
15966;SDS011;15175;48.154;11.534;2023-11-21T04:31:46;2.03;;;0.50;;
15966;SDS011;15175;48.154;11.534;2023-11-21T04:37:49;4.20;;;0.77;;
15966;SDS011;15175;48.154;11.534;2023-11-21T04:43:51;2.65;;;0.47;;
15966;SDS011;15175;48.154;11.534;2023-11-21T04:49:55;3.17;;;0.32;;
15966;SDS011;15175;48.154;11.534;2023-11-21T04:55:57;4.15;;;0.55;;
15966;SDS011;15175;48.154;11.534;2023-11-21T05:01:59;4.00;;;0.70;;
15966;SDS011;15175;48.154;11.534;2023-11-21T05:08:02;5.95;;;0.60;;
15966;SDS011;15175;48.154;11.534;2023-11-21T05:14:05;2.33;;;0.45;;
15966;SDS011;15175;48.154;11.534;2023-11-21T05:20:08;3.78;;;0.70;;
15966;SDS011;15175;48.154;11.534;2023-11-21T05:26:12;1.58;;;0.60;;
15966;SDS011;15175;48.154;11.534;2023-11-21T05:38:17;1.55;;;0.40;;
15966;SDS011;15175;48.154;11.534;2023-11-21T05:44:23;2.72;;;0.73;;
15966;SDS011;15175;48.154;11.534;2023-11-21T05:56:27;4.65;;;0.63;;
15966;SDS011;15175;48.154;11.534;2023-11-21T06:02:30;4.25;;;0.55;;
15966;SDS011;15175;48.154;11.534;2023-11-21T06:14:34;2.13;;;0.60;;
15966;SDS011;15175;48.154;11.534;2023-11-21T06:20:38;4.28;;;0.90;;
15966;SDS011;15175;48.154;11.534;2023-11-21T06:26:40;1.40;;;0.38;;
15966;SDS011;15175;48.154;11.534;2023-11-21T06:32:43;3.75;;;0.65;;
15966;SDS011;15175;48.154;11.534;2023-11-21T06:38:48;1.48;;;0.32;;
15966;SDS011;15175;48.154;11.534;2023-11-21T06:44:50;5.43;;;0.73;;
15966;SDS011;15175;48.154;11.534;2023-11-21T06:50:54;3.67;;;0.68;;
15966;SDS011;15175;48.154;11.534;2023-11-21T06:56:57;2.53;;;0.60;;
15966;SDS011;15175;48.154;11.534;2023-11-21T07:02:59;3.30;;;0.88;;
15966;SDS011;15175;48.154;11.534;2023-11-21T07:09:01;3.38;;;0.60;;
15966;SDS011;15175;48.154;11.534;2023-11-21T07:15:06;2.72;;;0.70;;
15966;SDS011;15175;48.154;11.534;2023-11-21T07:21:10;1.15;;;0.47;;
15966;SDS011;15175;48.154;11.534;2023-11-21T07:27:12;2.33;;;0.52;;
15966;SDS011;15175;48.154;11.534;2023-11-21T07:33:16;3.90;;;0.77;;
15966;SDS011;15175;48.154;11.534;2023-11-21T07:45:20;1.20;;;0.30;;
15966;SDS011;15175;48.154;11.534;2023-11-21T07:51:23;1.27;;;0.40;;
15966;SDS011;15175;48.154;11.534;2023-11-21T07:57:25;1.02;;;0.40;;
15966;SDS011;15175;48.154;11.534;2023-11-21T08:03:27;2.28;;;0.43;;
15966;SDS011;15175;48.154;11.534;2023-11-21T08:09:32;2.40;;;0.50;;
15966;SDS011;15175;48.154;11.534;2023-11-21T08:15:34;2.03;;;0.50;;
15966;SDS011;15175;48.154;11.534;2023-11-21T08:21:37;1.77;;;0.65;;
15966;SDS011;15175;48.154;11.534;2023-11-21T08:27:41;2.97;;;0.88;;
15966;SDS011;15175;48.154;11.534;2023-11-21T08:33:44;5.05;;;0.60;;
15966;SDS011;15175;48.154;11.534;2023-11-21T08:39:46;1.90;;;0.70;;
15966;SDS011;15175;48.154;11.534;2023-11-21T08:45:50;2.83;;;0.57;;
15966;SDS011;15175;48.154;11.534;2023-11-21T08:57:55;1.15;;;0.45;;
15966;SDS011;15175;48.154;11.534;2023-11-21T09:04:00;2.17;;;0.50;;
15966;SDS011;15175;48.154;11.534;2023-11-21T09:10:02;2.88;;;0.45;;
15966;SDS011;15175;48.154;11.534;2023-11-21T09:16:08;1.45;;;0.50;;
15966;SDS011;15175;48.154;11.534;2023-11-21T09:28:14;2.17;;;0.70;;
15966;SDS011;15175;48.154;11.534;2023-11-21T09:34:17;2.78;;;0.80;;
15966;SDS011;15175;48.154;11.534;2023-11-21T09:40:22;3.33;;;0.52;;
15966;SDS011;15175;48.154;11.534;2023-11-21T09:46:24;2.65;;;0.47;;
15966;SDS011;15175;48.154;11.534;2023-11-21T09:52:30;5.43;;;0.80;;
15966;SDS011;15175;48.154;11.534;2023-11-21T09:58:35;5.43;;;1.25;;
15966;SDS011;15175;48.154;11.534;2023-11-21T10:04:37;2.08;;;0.60;;
15966;SDS011;15175;48.154;11.534;2023-11-21T10:10:42;4.65;;;0.60;;
15966;SDS011;15175;48.154;11.534;2023-11-21T10:16:47;17.70;;;9.73;;
15966;SDS011;15175;48.154;11.534;2023-11-21T10:22:51;4.88;;;1.05;;
15966;SDS011;15175;48.154;11.534;2023-11-21T10:28:57;1.73;;;0.50;;
15966;SDS011;15175;48.154;11.534;2023-11-21T10:35:00;3.45;;;0.55;;
15966;SDS011;15175;48.154;11.534;2023-11-21T10:41:09;2.88;;;0.70;;
15966;SDS011;15175;48.154;11.534;2023-11-21T10:47:15;7.13;;;4.20;;
15966;SDS011;15175;48.154;11.534;2023-11-21T10:53:20;4.13;;;0.90;;
15966;SDS011;15175;48.154;11.534;2023-11-21T10:59:23;2.75;;;0.70;;
15966;SDS011;15175;48.154;11.534;2023-11-21T11:05:27;2.97;;;1.00;;
15966;SDS011;15175;48.154;11.534;2023-11-21T11:11:33;3.95;;;0.77;;
15966;SDS011;15175;48.154;11.534;2023-11-21T11:17:39;2.58;;;1.02;;
15966;SDS011;15175;48.154;11.534;2023-11-21T11:23:46;5.18;;;1.85;;
15966;SDS011;15175;48.154;11.534;2023-11-21T11:30:10;2.42;;;0.63;;
15966;SDS011;15175;48.154;11.534;2023-11-21T11:36:20;1.95;;;0.77;;
15966;SDS011;15175;48.154;11.534;2023-11-21T11:48:32;2.95;;;0.80;;
15966;SDS011;15175;48.154;11.534;2023-11-21T11:54:38;1.55;;;0.50;;
15966;SDS011;15175;48.154;11.534;2023-11-21T12:00:40;1.25;;;0.50;;
15966;SDS011;15175;48.154;11.534;2023-11-21T12:06:46;5.53;;;2.00;;
15966;SDS011;15175;48.154;11.534;2023-11-21T12:12:49;2.53;;;0.70;;
15966;SDS011;15175;48.154;11.534;2023-11-21T12:18:52;1.98;;;0.50;;
15966;SDS011;15175;48.154;11.534;2023-11-21T12:24:56;2.67;;;0.70;;
15966;SDS011;15175;48.154;11.534;2023-11-21T12:30:58;1.13;;;0.52;;
15966;SDS011;15175;48.154;11.534;2023-11-21T12:37:01;2.90;;;0.80;;
15966;SDS011;15175;48.154;11.534;2023-11-21T12:43:04;3.42;;;1.17;;
15966;SDS011;15175;48.154;11.534;2023-11-21T12:49:10;3.03;;;0.98;;
15966;SDS011;15175;48.154;11.534;2023-11-21T12:55:17;2.47;;;0.90;;
15966;SDS011;15175;48.154;11.534;2023-11-21T13:01:23;1.98;;;0.77;;
15966;SDS011;15175;48.154;11.534;2023-11-21T13:07:28;1.98;;;0.50;;
15966;SDS011;15175;48.154;11.534;2023-11-21T13:13:31;2.28;;;0.88;;
15966;SDS011;15175;48.154;11.534;2023-11-21T13:19:36;2.67;;;1.00;;
15966;SDS011;15175;48.154;11.534;2023-11-21T13:25:38;5.43;;;1.40;;
15966;SDS011;15175;48.154;11.534;2023-11-21T13:31:41;5.70;;;1.52;;
15966;SDS011;15175;48.154;11.534;2023-11-21T13:37:44;3.53;;;1.13;;
15966;SDS011;15175;48.154;11.534;2023-11-21T13:43:49;2.47;;;0.70;;
15966;SDS011;15175;48.154;11.534;2023-11-21T13:50:03;4.25;;;1.13;;
15966;SDS011;15175;48.154;11.534;2023-11-21T13:56:15;1.08;;;0.50;;
15966;SDS011;15175;48.154;11.534;2023-11-21T14:02:24;1.98;;;0.47;;
15966;SDS011;15175;48.154;11.534;2023-11-21T14:08:32;1.02;;;0.30;;
15966;SDS011;15175;48.154;11.534;2023-11-21T14:14:36;4.28;;;0.95;;
15966;SDS011;15175;48.154;11.534;2023-11-21T14:20:39;1.88;;;0.52;;
15966;SDS011;15175;48.154;11.534;2023-11-21T14:26:42;2.22;;;0.80;;
15966;SDS011;15175;48.154;11.534;2023-11-21T14:32:47;1.70;;;0.70;;
15966;SDS011;15175;48.154;11.534;2023-11-21T14:38:49;5.75;;;1.20;;
15966;SDS011;15175;48.154;11.534;2023-11-21T14:44:51;1.30;;;0.52;;
15966;SDS011;15175;48.154;11.534;2023-11-21T14:50:56;2.47;;;0.75;;
15966;SDS011;15175;48.154;11.534;2023-11-21T14:57:24;4.30;;;0.80;;
15966;SDS011;15175;48.154;11.534;2023-11-21T15:03:27;2.25;;;0.85;;
15966;SDS011;15175;48.154;11.534;2023-11-21T15:09:48;1.85;;;0.63;;
15966;SDS011;15175;48.154;11.534;2023-11-21T15:15:50;5.18;;;1.40;;
15966;SDS011;15175;48.154;11.534;2023-11-21T15:21:54;3.10;;;1.40;;
15966;SDS011;15175;48.154;11.534;2023-11-21T15:27:57;3.38;;;0.73;;
15966;SDS011;15175;48.154;11.534;2023-11-21T15:34:00;1.83;;;0.60;;
15966;SDS011;15175;48.154;11.534;2023-11-21T15:40:02;3.22;;;1.23;;
15966;SDS011;15175;48.154;11.534;2023-11-21T15:46:07;16.63;;;6.13;;
15966;SDS011;15175;48.154;11.534;2023-11-21T15:52:10;5.88;;;1.88;;
15966;SDS011;15175;48.154;11.534;2023-11-21T15:58:12;5.75;;;1.50;;
15966;SDS011;15175;48.154;11.534;2023-11-21T16:04:15;2.53;;;0.90;;
15966;SDS011;15175;48.154;11.534;2023-11-21T16:10:18;2.17;;;0.75;;
15966;SDS011;15175;48.154;11.534;2023-11-21T16:16:20;3.30;;;0.90;;
15966;SDS011;15175;48.154;11.534;2023-11-21T16:28:28;7.95;;;1.25;;
15966;SDS011;15175;48.154;11.534;2023-11-21T16:34:30;4.03;;;1.50;;
15966;SDS011;15175;48.154;11.534;2023-11-21T16:40:34;5.35;;;2.03;;
15966;SDS011;15175;48.154;11.534;2023-11-21T16:46:37;3.53;;;1.42;;
15966;SDS011;15175;48.154;11.534;2023-11-21T16:52:40;6.00;;;2.13;;
15966;SDS011;15175;48.154;11.534;2023-11-21T16:58:45;3.70;;;1.80;;
15966;SDS011;15175;48.154;11.534;2023-11-21T17:04:47;4.10;;;1.75;;
15966;SDS011;15175;48.154;11.534;2023-11-21T17:10:50;4.78;;;2.22;;
15966;SDS011;15175;48.154;11.534;2023-11-21T17:16:53;3.92;;;2.03;;
15966;SDS011;15175;48.154;11.534;2023-11-21T17:22:56;5.75;;;3.25;;
15966;SDS011;15175;48.154;11.534;2023-11-21T17:28:58;5.07;;;2.03;;
15966;SDS011;15175;48.154;11.534;2023-11-21T17:35:03;5.55;;;2.95;;
15966;SDS011;15175;48.154;11.534;2023-11-21T17:41:06;4.88;;;2.30;;
15966;SDS011;15175;48.154;11.534;2023-11-21T17:47:11;6.05;;;2.70;;
15966;SDS011;15175;48.154;11.534;2023-11-21T17:53:14;7.15;;;2.92;;
15966;SDS011;15175;48.154;11.534;2023-11-21T17:59:17;6.47;;;2.92;;
15966;SDS011;15175;48.154;11.534;2023-11-21T18:05:19;6.18;;;2.80;;
15966;SDS011;15175;48.154;11.534;2023-11-21T18:11:25;5.68;;;2.63;;
15966;SDS011;15175;48.154;11.534;2023-11-21T18:17:27;5.22;;;2.72;;
15966;SDS011;15175;48.154;11.534;2023-11-21T18:23:29;7.05;;;3.15;;
15966;SDS011;15175;48.154;11.534;2023-11-21T18:29:32;6.75;;;3.47;;
15966;SDS011;15175;48.154;11.534;2023-11-21T18:35:35;6.75;;;3.30;;
15966;SDS011;15175;48.154;11.534;2023-11-21T18:41:37;7.25;;;3.60;;
15966;SDS011;15175;48.154;11.534;2023-11-21T18:47:40;8.30;;;3.95;;
15966;SDS011;15175;48.154;11.534;2023-11-21T18:53:43;5.82;;;3.17;;
15966;SDS011;15175;48.154;11.534;2023-11-21T18:59:45;7.20;;;4.05;;
15966;SDS011;15175;48.154;11.534;2023-11-21T19:05:48;5.07;;;2.90;;
15966;SDS011;15175;48.154;11.534;2023-11-21T19:11:51;8.55;;;4.28;;
15966;SDS011;15175;48.154;11.534;2023-11-21T19:17:53;5.88;;;3.20;;
15966;SDS011;15175;48.154;11.534;2023-11-21T19:23:56;9.52;;;4.47;;
15966;SDS011;15175;48.154;11.534;2023-11-21T19:29:58;13.00;;;5.35;;
15966;SDS011;15175;48.154;11.534;2023-11-21T19:36:01;8.85;;;3.88;;
15966;SDS011;15175;48.154;11.534;2023-11-21T19:42:05;7.55;;;4.07;;
15966;SDS011;15175;48.154;11.534;2023-11-21T19:48:07;7.03;;;3.40;;
15966;SDS011;15175;48.154;11.534;2023-11-21T19:54:09;6.32;;;3.47;;
15966;SDS011;15175;48.154;11.534;2023-11-21T20:00:13;5.88;;;3.05;;
15966;SDS011;15175;48.154;11.534;2023-11-21T20:06:16;5.13;;;3.20;;
15966;SDS011;15175;48.154;11.534;2023-11-21T20:12:19;5.40;;;3.00;;
15966;SDS011;15175;48.154;11.534;2023-11-21T20:18:23;22.35;;;7.13;;
15966;SDS011;15175;48.154;11.534;2023-11-21T20:24:26;7.10;;;3.13;;
15966;SDS011;15175;48.154;11.534;2023-11-21T20:30:28;6.13;;;2.70;;
15966;SDS011;15175;48.154;11.534;2023-11-21T20:36:33;4.70;;;2.30;;
15966;SDS011;15175;48.154;11.534;2023-11-21T20:42:36;3.95;;;1.98;;
15966;SDS011;15175;48.154;11.534;2023-11-21T20:48:42;3.92;;;1.50;;
15966;SDS011;15175;48.154;11.534;2023-11-21T20:54:45;4.40;;;1.90;;
15966;SDS011;15175;48.154;11.534;2023-11-21T21:00:48;4.70;;;2.60;;
15966;SDS011;15175;48.154;11.534;2023-11-21T21:06:50;4.57;;;2.40;;
15966;SDS011;15175;48.154;11.534;2023-11-21T21:12:54;6.60;;;3.13;;
15966;SDS011;15175;48.154;11.534;2023-11-21T21:18:56;5.35;;;2.83;;
15966;SDS011;15175;48.154;11.534;2023-11-21T21:24:59;5.47;;;3.25;;
15966;SDS011;15175;48.154;11.534;2023-11-21T21:31:02;6.10;;;3.90;;
15966;SDS011;15175;48.154;11.534;2023-11-21T21:37:04;6.47;;;3.53;;
15966;SDS011;15175;48.154;11.534;2023-11-21T21:43:06;6.38;;;3.67;;
15966;SDS011;15175;48.154;11.534;2023-11-21T21:49:10;7.38;;;3.85;;
15966;SDS011;15175;48.154;11.534;2023-11-21T21:55:13;9.05;;;4.82;;
15966;SDS011;15175;48.154;11.534;2023-11-21T22:01:16;7.05;;;4.50;;
15966;SDS011;15175;48.154;11.534;2023-11-21T22:07:20;8.15;;;4.40;;
15966;SDS011;15175;48.154;11.534;2023-11-21T22:13:22;9.05;;;4.35;;
15966;SDS011;15175;48.154;11.534;2023-11-21T22:19:24;10.05;;;5.72;;
15966;SDS011;15175;48.154;11.534;2023-11-21T22:25:28;9.18;;;5.07;;
15966;SDS011;15175;48.154;11.534;2023-11-21T22:31:30;9.95;;;5.97;;
15966;SDS011;15175;48.154;11.534;2023-11-21T22:37:33;7.97;;;4.90;;
15966;SDS011;15175;48.154;11.534;2023-11-21T22:43:36;9.82;;;5.10;;
15966;SDS011;15175;48.154;11.534;2023-11-21T22:49:39;10.32;;;5.63;;
15966;SDS011;15175;48.154;11.534;2023-11-21T22:55:41;11.38;;;5.70;;
15966;SDS011;15175;48.154;11.534;2023-11-21T23:01:46;7.82;;;4.75;;
15966;SDS011;15175;48.154;11.534;2023-11-21T23:07:50;9.80;;;5.38;;
15966;SDS011;15175;48.154;11.534;2023-11-21T23:13:52;8.70;;;5.50;;
15966;SDS011;15175;48.154;11.534;2023-11-21T23:19:55;8.18;;;5.13;;
15966;SDS011;15175;48.154;11.534;2023-11-21T23:25:57;9.05;;;5.38;;
15966;SDS011;15175;48.154;11.534;2023-11-21T23:32:01;9.60;;;4.95;;
15966;SDS011;15175;48.154;11.534;2023-11-21T23:38:04;8.20;;;4.78;;
15966;SDS011;15175;48.154;11.534;2023-11-21T23:44:06;9.23;;;4.68;;
15966;SDS011;15175;48.154;11.534;2023-11-21T23:50:09;9.68;;;4.95;;
15966;SDS011;15175;48.154;11.534;2023-11-21T23:56:12;9.00;;;5.10;;
